sensor_id;sensor_type;location;lat;lon;timestamp;P1;P2;P0
39955;PMS5003;25631;51.516;-0.470;2023-05-10T00:00:05;17;17;
39955;PMS5003;25631;51.516;-0.470;2023-05-10T00:02:42;16;16;
39955;PMS5003;25631;51.516;-0.470;2023-05-10T00:05:19;15;15;
39955;PMS5003;25631;51.516;-0.470;2023-05-10T00:07:55;14;14;
39955;PMS5003;25631;51.516;-0.470;2023-05-10T00:10:32;15;14;
39955;PMS5003;25631;51.516;-0.470;2023-05-10T00:13:08;15;14;
39955;PMS5003;25631;51.516;-0.470;2023-05-10T00:15:45;12;11;
39955;PMS5003;25631;51.516;-0.470;2023-05-10T00:18:21;12;12;
39955;PMS5003;25631;51.516;-0.470;2023-05-10T00:20:58;13;12;
39955;PMS5003;25631;51.516;-0.470;2023-05-10T00:23:35;14;13;
39955;PMS5003;25631;51.516;-0.470;2023-05-10T00:26:11;11;11;
39955;PMS5003;25631;51.516;-0.470;2023-05-10T00:28:48;10;10;
39955;PMS5003;25631;51.516;-0.470;2023-05-10T00:31:25;9;9;
39955;PMS5003;25631;51.516;-0.470;2023-05-10T00:34:01;9;8;
39955;PMS5003;25631;51.516;-0.470;2023-05-10T00:36:38;9;8;
39955;PMS5003;25631;51.516;-0.470;2023-05-10T00:39:15;7;7;
39955;PMS5003;25631;51.516;-0.470;2023-05-10T00:41:51;6;6;
39955;PMS5003;25631;51.516;-0.470;2023-05-10T00:44:28;6;6;
39955;PMS5003;25631;51.516;-0.470;2023-05-10T00:47:04;6;5;
39955;PMS5003;25631;51.516;-0.470;2023-05-10T00:49:41;6;6;
39955;PMS5003;25631;51.516;-0.470;2023-05-10T00:52:18;6;6;
39955;PMS5003;25631;51.516;-0.470;2023-05-10T00:54:55;5;5;
39955;PMS5003;25631;51.516;-0.470;2023-05-10T00:57:32;5;5;
39955;PMS5003;25631;51.516;-0.470;2023-05-10T01:00:09;5;5;
39955;PMS5003;25631;51.516;-0.470;2023-05-10T01:02:48;6;6;
39955;PMS5003;25631;51.516;-0.470;2023-05-10T01:05:24;7;6;
39955;PMS5003;25631;51.516;-0.470;2023-05-10T01:08:01;7;6;
39955;PMS5003;25631;51.516;-0.470;2023-05-10T01:10:37;8;7;
39955;PMS5003;25631;51.516;-0.470;2023-05-10T01:13:15;8;7;
39955;PMS5003;25631;51.516;-0.470;2023-05-10T01:16:02;4;4;
39955;PMS5003;25631;51.516;-0.470;2023-05-10T01:18:40;4;4;
39955;PMS5003;25631;51.516;-0.470;2023-05-10T01:21:19;5;3;
39955;PMS5003;25631;51.516;-0.470;2023-05-10T01:24:09;5;4;
39955;PMS5003;25631;51.516;-0.470;2023-05-10T01:27:02;4;4;
39955;PMS5003;25631;51.516;-0.470;2023-05-10T01:30:01;3;3;
39955;PMS5003;25631;51.516;-0.470;2023-05-10T01:32:52;3;3;
39955;PMS5003;25631;51.516;-0.470;2023-05-10T01:35:37;4;3;
39955;PMS5003;25631;51.516;-0.470;2023-05-10T01:38:18;5;4;
39955;PMS5003;25631;51.516;-0.470;2023-05-10T01:41:07;5;4;
39955;PMS5003;25631;51.516;-0.470;2023-05-10T01:43:53;2;2;
39955;PMS5003;25631;51.516;-0.470;2023-05-10T01:46:36;3;3;
39955;PMS5003;25631;51.516;-0.470;2023-05-10T01:49:16;1;1;
39955;PMS5003;25631;51.516;-0.470;2023-05-10T01:51:59;2;2;
39955;PMS5003;25631;51.516;-0.470;2023-05-10T01:54:43;2;1;
39955;PMS5003;25631;51.516;-0.470;2023-05-10T01:57:26;3;3;
39955;PMS5003;25631;51.516;-0.470;2023-05-10T02:00:08;2;2;
39955;PMS5003;25631;51.516;-0.470;2023-05-10T02:02:47;0;0;
39955;PMS5003;25631;51.516;-0.470;2023-05-10T02:05:26;1;1;
39955;PMS5003;25631;51.516;-0.470;2023-05-10T02:08:07;2;2;
39955;PMS5003;25631;51.516;-0.470;2023-05-10T02:10:45;3;3;
39955;PMS5003;25631;51.516;-0.470;2023-05-10T02:13:24;3;3;
39955;PMS5003;25631;51.516;-0.470;2023-05-10T02:16:03;1;1;
39955;PMS5003;25631;51.516;-0.470;2023-05-10T02:18:41;0;0;
39955;PMS5003;25631;51.516;-0.470;2023-05-10T02:21:19;1;1;
39955;PMS5003;25631;51.516;-0.470;2023-05-10T02:23:57;2;2;
39955;PMS5003;25631;51.516;-0.470;2023-05-10T02:26:35;1;1;
39955;PMS5003;25631;51.516;-0.470;2023-05-10T02:29:13;2;2;
39955;PMS5003;25631;51.516;-0.470;2023-05-10T02:31:52;2;2;
39955;PMS5003;25631;51.516;-0.470;2023-05-10T02:34:30;2;2;
39955;PMS5003;25631;51.516;-0.470;2023-05-10T02:37:08;2;2;
39955;PMS5003;25631;51.516;-0.470;2023-05-10T02:39:45;2;2;
39955;PMS5003;25631;51.516;-0.470;2023-05-10T02:42:23;3;3;
39955;PMS5003;25631;51.516;-0.470;2023-05-10T02:45:03;4;4;
39955;PMS5003;25631;51.516;-0.470;2023-05-10T02:47:43;4;4;
39955;PMS5003;25631;51.516;-0.470;2023-05-10T02:50:20;3;2;
39955;PMS5003;25631;51.516;-0.470;2023-05-10T02:53:00;2;2;
39955;PMS5003;25631;51.516;-0.470;2023-05-10T02:55:40;2;2;
39955;PMS5003;25631;51.516;-0.470;2023-05-10T02:58:17;2;2;
39955;PMS5003;25631;51.516;-0.470;2023-05-10T03:00:53;2;2;
39955;PMS5003;25631;51.516;-0.470;2023-05-10T03:03:30;15;14;
39955;PMS5003;25631;51.516;-0.470;2023-05-10T03:06:07;12;11;
39955;PMS5003;25631;51.516;-0.470;2023-05-10T03:08:43;9;9;
39955;PMS5003;25631;51.516;-0.470;2023-05-10T03:11:24;4;3;
39955;PMS5003;25631;51.516;-0.470;2023-05-10T03:14:10;4;3;
39955;PMS5003;25631;51.516;-0.470;2023-05-10T03:16:56;5;5;
39955;PMS5003;25631;51.516;-0.470;2023-05-10T03:19:39;5;5;
39955;PMS5003;25631;51.516;-0.470;2023-05-10T03:22:24;5;5;
39955;PMS5003;25631;51.516;-0.470;2023-05-10T03:25:05;4;4;
39955;PMS5003;25631;51.516;-0.470;2023-05-10T03:27:43;4;3;
39955;PMS5003;25631;51.516;-0.470;2023-05-10T03:30:21;5;4;
39955;PMS5003;25631;51.516;-0.470;2023-05-10T03:32:58;4;3;
39955;PMS5003;25631;51.516;-0.470;2023-05-10T03:35:39;3;3;
39955;PMS5003;25631;51.516;-0.470;2023-05-10T03:38:16;3;2;
39955;PMS5003;25631;51.516;-0.470;2023-05-10T03:40:52;3;3;
39955;PMS5003;25631;51.516;-0.470;2023-05-10T03:43:29;1;1;
39955;PMS5003;25631;51.516;-0.470;2023-05-10T03:46:05;2;2;
39955;PMS5003;25631;51.516;-0.470;2023-05-10T03:48:41;3;3;
39955;PMS5003;25631;51.516;-0.470;2023-05-10T03:51:18;3;2;
39955;PMS5003;25631;51.516;-0.470;2023-05-10T03:53:54;2;1;
39955;PMS5003;25631;51.516;-0.470;2023-05-10T03:56:31;3;2;
39955;PMS5003;25631;51.516;-0.470;2023-05-10T03:59:07;1;1;
39955;PMS5003;25631;51.516;-0.470;2023-05-10T04:01:43;1;1;
39955;PMS5003;25631;51.516;-0.470;2023-05-10T04:04:20;2;2;
39955;PMS5003;25631;51.516;-0.470;2023-05-10T04:06:56;3;3;
39955;PMS5003;25631;51.516;-0.470;2023-05-10T04:09:33;3;3;
39955;PMS5003;25631;51.516;-0.470;2023-05-10T04:12:09;1;1;
39955;PMS5003;25631;51.516;-0.470;2023-05-10T04:14:46;2;2;
39955;PMS5003;25631;51.516;-0.470;2023-05-10T04:17:22;3;2;
39955;PMS5003;25631;51.516;-0.470;2023-05-10T04:19:59;3;2;
39955;PMS5003;25631;51.516;-0.470;2023-05-10T04:22:35;2;2;
39955;PMS5003;25631;51.516;-0.470;2023-05-10T04:25:12;3;2;
39955;PMS5003;25631;51.516;-0.470;2023-05-10T04:27:48;1;1;
39955;PMS5003;25631;51.516;-0.470;2023-05-10T04:30:25;2;2;
39955;PMS5003;25631;51.516;-0.470;2023-05-10T04:33:01;1;1;
39955;PMS5003;25631;51.516;-0.470;2023-05-10T04:35:38;2;2;
39955;PMS5003;25631;51.516;-0.470;2023-05-10T04:38:15;1;1;
39955;PMS5003;25631;51.516;-0.470;2023-05-10T04:40:51;0;0;
39955;PMS5003;25631;51.516;-0.470;2023-05-10T04:43:27;1;1;
39955;PMS5003;25631;51.516;-0.470;2023-05-10T04:46:04;1;1;
39955;PMS5003;25631;51.516;-0.470;2023-05-10T04:48:41;1;1;
39955;PMS5003;25631;51.516;-0.470;2023-05-10T04:51:17;2;2;
39955;PMS5003;25631;51.516;-0.470;2023-05-10T04:53:54;3;3;
39955;PMS5003;25631;51.516;-0.470;2023-05-10T04:56:30;2;2;
39955;PMS5003;25631;51.516;-0.470;2023-05-10T04:59:07;4;3;
39955;PMS5003;25631;51.516;-0.470;2023-05-10T05:01:43;4;3;
39955;PMS5003;25631;51.516;-0.470;2023-05-10T05:04:19;1;1;
39955;PMS5003;25631;51.516;-0.470;2023-05-10T05:06:56;2;2;
39955;PMS5003;25631;51.516;-0.470;2023-05-10T05:09:33;4;3;
39955;PMS5003;25631;51.516;-0.470;2023-05-10T05:12:09;2;2;
39955;PMS5003;25631;51.516;-0.470;2023-05-10T05:14:46;3;3;
39955;PMS5003;25631;51.516;-0.470;2023-05-10T05:17:22;2;2;
39955;PMS5003;25631;51.516;-0.470;2023-05-10T05:19:59;2;2;
39955;PMS5003;25631;51.516;-0.470;2023-05-10T05:22:35;2;2;
39955;PMS5003;25631;51.516;-0.470;2023-05-10T05:25:12;2;2;
39955;PMS5003;25631;51.516;-0.470;2023-05-10T05:27:49;1;1;
39955;PMS5003;25631;51.516;-0.470;2023-05-10T05:30:25;1;1;
39955;PMS5003;25631;51.516;-0.470;2023-05-10T05:33:02;1;1;
39955;PMS5003;25631;51.516;-0.470;2023-05-10T05:35:38;1;1;
39955;PMS5003;25631;51.516;-0.470;2023-05-10T05:38:15;1;1;
39955;PMS5003;25631;51.516;-0.470;2023-05-10T05:40:51;1;1;
39955;PMS5003;25631;51.516;-0.470;2023-05-10T05:43:28;2;2;
39955;PMS5003;25631;51.516;-0.470;2023-05-10T05:46:04;0;0;
39955;PMS5003;25631;51.516;-0.470;2023-05-10T05:48:41;0;0;
39955;PMS5003;25631;51.516;-0.470;2023-05-10T05:51:17;1;1;
39955;PMS5003;25631;51.516;-0.470;2023-05-10T05:53:54;0;0;
39955;PMS5003;25631;51.516;-0.470;2023-05-10T05:56:30;0;0;
39955;PMS5003;25631;51.516;-0.470;2023-05-10T05:59:07;2;2;
39955;PMS5003;25631;51.516;-0.470;2023-05-10T06:01:43;2;1;
39955;PMS5003;25631;51.516;-0.470;2023-05-10T06:04:20;2;1;
39955;PMS5003;25631;51.516;-0.470;2023-05-10T06:06:57;1;1;
39955;PMS5003;25631;51.516;-0.470;2023-05-10T06:09:33;1;1;
39955;PMS5003;25631;51.516;-0.470;2023-05-10T06:12:09;0;0;
39955;PMS5003;25631;51.516;-0.470;2023-05-10T06:14:47;0;0;
39955;PMS5003;25631;51.516;-0.470;2023-05-10T06:17:24;0;0;
39955;PMS5003;25631;51.516;-0.470;2023-05-10T06:20:00;1;1;
39955;PMS5003;25631;51.516;-0.470;2023-05-10T06:22:37;1;1;
39955;PMS5003;25631;51.516;-0.470;2023-05-10T06:25:13;2;1;
39955;PMS5003;25631;51.516;-0.470;2023-05-10T06:27:50;1;1;
39955;PMS5003;25631;51.516;-0.470;2023-05-10T06:30:27;1;1;
39955;PMS5003;25631;51.516;-0.470;2023-05-10T06:33:03;0;0;
39955;PMS5003;25631;51.516;-0.470;2023-05-10T06:35:40;0;0;
39955;PMS5003;25631;51.516;-0.470;2023-05-10T06:38:16;1;1;
39955;PMS5003;25631;51.516;-0.470;2023-05-10T06:40:53;0;0;
39955;PMS5003;25631;51.516;-0.470;2023-05-10T06:43:29;0;0;
39955;PMS5003;25631;51.516;-0.470;2023-05-10T06:46:06;1;1;
39955;PMS5003;25631;51.516;-0.470;2023-05-10T06:48:42;1;1;
39955;PMS5003;25631;51.516;-0.470;2023-05-10T06:51:19;1;1;
39955;PMS5003;25631;51.516;-0.470;2023-05-10T06:53:55;0;0;
39955;PMS5003;25631;51.516;-0.470;2023-05-10T06:56:32;0;0;
39955;PMS5003;25631;51.516;-0.470;2023-05-10T06:59:08;0;0;
39955;PMS5003;25631;51.516;-0.470;2023-05-10T07:01:45;0;0;
39955;PMS5003;25631;51.516;-0.470;2023-05-10T07:04:21;0;0;
39955;PMS5003;25631;51.516;-0.470;2023-05-10T07:06:57;1;1;
39955;PMS5003;25631;51.516;-0.470;2023-05-10T07:09:34;0;0;
39955;PMS5003;25631;51.516;-0.470;2023-05-10T07:12:10;1;0;
39955;PMS5003;25631;51.516;-0.470;2023-05-10T07:14:47;0;0;
39955;PMS5003;25631;51.516;-0.470;2023-05-10T07:17:24;0;0;
39955;PMS5003;25631;51.516;-0.470;2023-05-10T07:20:00;0;0;
39955;PMS5003;25631;51.516;-0.470;2023-05-10T07:22:37;0;0;
39955;PMS5003;25631;51.516;-0.470;2023-05-10T07:25:13;0;0;
39955;PMS5003;25631;51.516;-0.470;2023-05-10T07:27:50;1;1;
39955;PMS5003;25631;51.516;-0.470;2023-05-10T07:30:27;1;1;
39955;PMS5003;25631;51.516;-0.470;2023-05-10T07:33:03;1;0;
39955;PMS5003;25631;51.516;-0.470;2023-05-10T07:35:40;1;0;
39955;PMS5003;25631;51.516;-0.470;2023-05-10T07:38:16;1;0;
39955;PMS5003;25631;51.516;-0.470;2023-05-10T07:40:53;0;0;
39955;PMS5003;25631;51.516;-0.470;2023-05-10T07:43:29;0;0;
39955;PMS5003;25631;51.516;-0.470;2023-05-10T07:46:06;0;0;
39955;PMS5003;25631;51.516;-0.470;2023-05-10T07:48:42;1;1;
39955;PMS5003;25631;51.516;-0.470;2023-05-10T07:51:19;0;0;
39955;PMS5003;25631;51.516;-0.470;2023-05-10T07:53:55;1;1;
39955;PMS5003;25631;51.516;-0.470;2023-05-10T07:56:32;2;2;
39955;PMS5003;25631;51.516;-0.470;2023-05-10T07:59:08;1;1;
39955;PMS5003;25631;51.516;-0.470;2023-05-10T08:01:45;1;1;
39955;PMS5003;25631;51.516;-0.470;2023-05-10T08:04:22;2;2;
39955;PMS5003;25631;51.516;-0.470;2023-05-10T08:06:58;2;1;
39955;PMS5003;25631;51.516;-0.470;2023-05-10T08:09:35;2;1;
39955;PMS5003;25631;51.516;-0.470;2023-05-10T08:12:17;2;1;
39955;PMS5003;25631;51.516;-0.470;2023-05-10T08:14:54;1;1;
39955;PMS5003;25631;51.516;-0.470;2023-05-10T08:17:31;1;1;
39955;PMS5003;25631;51.516;-0.470;2023-05-10T08:20:08;2;2;
39955;PMS5003;25631;51.516;-0.470;2023-05-10T08:22:45;1;1;
39955;PMS5003;25631;51.516;-0.470;2023-05-10T08:25:21;1;1;
39955;PMS5003;25631;51.516;-0.470;2023-05-10T08:27:58;2;2;
39955;PMS5003;25631;51.516;-0.470;2023-05-10T08:30:35;1;1;
39955;PMS5003;25631;51.516;-0.470;2023-05-10T08:33:11;3;3;
39955;PMS5003;25631;51.516;-0.470;2023-05-10T08:35:48;3;2;
39955;PMS5003;25631;51.516;-0.470;2023-05-10T08:38:24;2;2;
39955;PMS5003;25631;51.516;-0.470;2023-05-10T08:41:01;2;2;
39955;PMS5003;25631;51.516;-0.470;2023-05-10T08:43:39;2;2;
39955;PMS5003;25631;51.516;-0.470;2023-05-10T08:46:16;1;1;
39955;PMS5003;25631;51.516;-0.470;2023-05-10T08:48:54;3;3;
39955;PMS5003;25631;51.516;-0.470;2023-05-10T08:51:31;3;3;
39955;PMS5003;25631;51.516;-0.470;2023-05-10T08:54:12;2;2;
39955;PMS5003;25631;51.516;-0.470;2023-05-10T08:56:49;1;1;
39955;PMS5003;25631;51.516;-0.470;2023-05-10T08:59:26;2;2;
39955;PMS5003;25631;51.516;-0.470;2023-05-10T09:02:03;4;3;
39955;PMS5003;25631;51.516;-0.470;2023-05-10T09:04:40;6;5;
39955;PMS5003;25631;51.516;-0.470;2023-05-10T09:07:17;4;3;
39955;PMS5003;25631;51.516;-0.470;2023-05-10T09:09:55;4;3;
39955;PMS5003;25631;51.516;-0.470;2023-05-10T09:12:33;3;3;
39955;PMS5003;25631;51.516;-0.470;2023-05-10T09:15:09;2;2;
39955;PMS5003;25631;51.516;-0.470;2023-05-10T09:17:46;3;3;
39955;PMS5003;25631;51.516;-0.470;2023-05-10T09:20:24;4;4;
39955;PMS5003;25631;51.516;-0.470;2023-05-10T09:23:01;2;2;
39955;PMS5003;25631;51.516;-0.470;2023-05-10T09:25:38;3;3;
39955;PMS5003;25631;51.516;-0.470;2023-05-10T09:28:16;4;4;
39955;PMS5003;25631;51.516;-0.470;2023-05-10T09:30:53;3;3;
39955;PMS5003;25631;51.516;-0.470;2023-05-10T09:33:29;3;3;
39955;PMS5003;25631;51.516;-0.470;2023-05-10T09:36:20;4;4;
39955;PMS5003;25631;51.516;-0.470;2023-05-10T09:38:57;3;3;
39955;PMS5003;25631;51.516;-0.470;2023-05-10T09:41:34;3;3;
39955;PMS5003;25631;51.516;-0.470;2023-05-10T09:44:10;4;4;
39955;PMS5003;25631;51.516;-0.470;2023-05-10T09:46:48;5;5;
39955;PMS5003;25631;51.516;-0.470;2023-05-10T09:49:26;5;5;
39955;PMS5003;25631;51.516;-0.470;2023-05-10T09:52:03;6;5;
39955;PMS5003;25631;51.516;-0.470;2023-05-10T09:54:44;3;3;
39955;PMS5003;25631;51.516;-0.470;2023-05-10T09:57:28;4;4;
39955;PMS5003;25631;51.516;-0.470;2023-05-10T10:00:05;4;4;
39955;PMS5003;25631;51.516;-0.470;2023-05-10T10:02:45;5;5;
39955;PMS5003;25631;51.516;-0.470;2023-05-10T10:05:27;6;6;
39955;PMS5003;25631;51.516;-0.470;2023-05-10T10:08:04;4;4;
39955;PMS5003;25631;51.516;-0.470;2023-05-10T10:10:41;3;3;
39955;PMS5003;25631;51.516;-0.470;2023-05-10T10:13:18;3;3;
39955;PMS5003;25631;51.516;-0.470;2023-05-10T10:15:55;4;3;
39955;PMS5003;25631;51.516;-0.470;2023-05-10T10:18:31;4;4;
39955;PMS5003;25631;51.516;-0.470;2023-05-10T10:21:09;2;2;
39955;PMS5003;25631;51.516;-0.470;2023-05-10T10:23:46;3;3;
39955;PMS5003;25631;51.516;-0.470;2023-05-10T10:26:23;3;3;
39955;PMS5003;25631;51.516;-0.470;2023-05-10T10:29:04;2;2;
39955;PMS5003;25631;51.516;-0.470;2023-05-10T10:31:53;2;2;
39955;PMS5003;25631;51.516;-0.470;2023-05-10T10:34:38;2;2;
39955;PMS5003;25631;51.516;-0.470;2023-05-10T10:37:15;2;2;
39955;PMS5003;25631;51.516;-0.470;2023-05-10T10:39:52;2;2;
39955;PMS5003;25631;51.516;-0.470;2023-05-10T10:42:43;2;1;
39955;PMS5003;25631;51.516;-0.470;2023-05-10T10:45:21;1;1;
39955;PMS5003;25631;51.516;-0.470;2023-05-10T10:48:19;1;1;
39955;PMS5003;25631;51.516;-0.470;2023-05-10T10:50:57;1;1;
39955;PMS5003;25631;51.516;-0.470;2023-05-10T10:53:33;1;1;
39955;PMS5003;25631;51.516;-0.470;2023-05-10T10:56:10;1;1;
39955;PMS5003;25631;51.516;-0.470;2023-05-10T10:58:49;1;1;
39955;PMS5003;25631;51.516;-0.470;2023-05-10T11:01:26;2;2;
39955;PMS5003;25631;51.516;-0.470;2023-05-10T11:04:17;1;1;
39955;PMS5003;25631;51.516;-0.470;2023-05-10T11:07:00;2;1;
39955;PMS5003;25631;51.516;-0.470;2023-05-10T11:09:52;1;1;
39955;PMS5003;25631;51.516;-0.470;2023-05-10T11:12:29;2;2;
39955;PMS5003;25631;51.516;-0.470;2023-05-10T11:15:08;2;1;
39955;PMS5003;25631;51.516;-0.470;2023-05-10T11:17:45;2;2;
39955;PMS5003;25631;51.516;-0.470;2023-05-10T11:20:23;2;1;
39955;PMS5003;25631;51.516;-0.470;2023-05-10T11:23:10;2;1;
39955;PMS5003;25631;51.516;-0.470;2023-05-10T11:25:48;0;0;
39955;PMS5003;25631;51.516;-0.470;2023-05-10T11:28:25;2;2;
39955;PMS5003;25631;51.516;-0.470;2023-05-10T11:31:02;0;0;
39955;PMS5003;25631;51.516;-0.470;2023-05-10T11:33:43;0;0;
39955;PMS5003;25631;51.516;-0.470;2023-05-10T11:36:20;2;2;
39955;PMS5003;25631;51.516;-0.470;2023-05-10T11:39:00;2;2;
39955;PMS5003;25631;51.516;-0.470;2023-05-10T11:41:36;2;2;
39955;PMS5003;25631;51.516;-0.470;2023-05-10T11:44:12;2;2;
39955;PMS5003;25631;51.516;-0.470;2023-05-10T11:46:49;2;2;
39955;PMS5003;25631;51.516;-0.470;2023-05-10T11:49:26;2;2;
39955;PMS5003;25631;51.516;-0.470;2023-05-10T11:52:04;2;2;
39955;PMS5003;25631;51.516;-0.470;2023-05-10T11:54:44;1;1;
39955;PMS5003;25631;51.516;-0.470;2023-05-10T11:57:26;2;2;
39955;PMS5003;25631;51.516;-0.470;2023-05-10T12:00:03;2;2;
39955;PMS5003;25631;51.516;-0.470;2023-05-10T12:02:41;1;1;
39955;PMS5003;25631;51.516;-0.470;2023-05-10T12:05:17;1;1;
39955;PMS5003;25631;51.516;-0.470;2023-05-10T12:08:10;1;1;
39955;PMS5003;25631;51.516;-0.470;2023-05-10T12:10:47;4;3;
39955;PMS5003;25631;51.516;-0.470;2023-05-10T12:13:23;4;3;
39955;PMS5003;25631;51.516;-0.470;2023-05-10T12:16:00;2;2;
39955;PMS5003;25631;51.516;-0.470;2023-05-10T12:18:49;2;1;
39955;PMS5003;25631;51.516;-0.470;2023-05-10T12:21:27;2;2;
39955;PMS5003;25631;51.516;-0.470;2023-05-10T12:24:05;3;2;
39955;PMS5003;25631;51.516;-0.470;2023-05-10T12:26:41;2;2;
39955;PMS5003;25631;51.516;-0.470;2023-05-10T12:29:18;1;1;
39955;PMS5003;25631;51.516;-0.470;2023-05-10T12:31:55;1;1;
39955;PMS5003;25631;51.516;-0.470;2023-05-10T12:34:34;2;2;
39955;PMS5003;25631;51.516;-0.470;2023-05-10T12:37:11;3;2;
39955;PMS5003;25631;51.516;-0.470;2023-05-10T12:39:48;3;2;
39955;PMS5003;25631;51.516;-0.470;2023-05-10T12:42:24;2;2;
39955;PMS5003;25631;51.516;-0.470;2023-05-10T12:45:01;2;2;
39955;PMS5003;25631;51.516;-0.470;2023-05-10T12:47:38;1;1;
39955;PMS5003;25631;51.516;-0.470;2023-05-10T12:50:14;1;1;
39955;PMS5003;25631;51.516;-0.470;2023-05-10T12:52:51;1;1;
39955;PMS5003;25631;51.516;-0.470;2023-05-10T12:55:27;2;2;
39955;PMS5003;25631;51.516;-0.470;2023-05-10T12:58:04;3;2;
39955;PMS5003;25631;51.516;-0.470;2023-05-10T13:00:40;3;2;
39955;PMS5003;25631;51.516;-0.470;2023-05-10T13:03:17;2;2;
39955;PMS5003;25631;51.516;-0.470;2023-05-10T13:05:53;1;1;
39955;PMS5003;25631;51.516;-0.470;2023-05-10T13:08:30;2;2;
39955;PMS5003;25631;51.516;-0.470;2023-05-10T13:11:07;3;3;
39955;PMS5003;25631;51.516;-0.470;2023-05-10T13:13:43;2;2;
39955;PMS5003;25631;51.516;-0.470;2023-05-10T13:16:20;3;3;
39955;PMS5003;25631;51.516;-0.470;2023-05-10T13:18:56;3;3;
39955;PMS5003;25631;51.516;-0.470;2023-05-10T13:21:33;5;5;
39955;PMS5003;25631;51.516;-0.470;2023-05-10T13:24:09;5;5;
39955;PMS5003;25631;51.516;-0.470;2023-05-10T13:26:46;4;4;
39955;PMS5003;25631;51.516;-0.470;2023-05-10T13:29:23;3;3;
39955;PMS5003;25631;51.516;-0.470;2023-05-10T13:31:59;3;3;
39955;PMS5003;25631;51.516;-0.470;2023-05-10T13:34:36;3;3;
39955;PMS5003;25631;51.516;-0.470;2023-05-10T13:37:12;3;3;
39955;PMS5003;25631;51.516;-0.470;2023-05-10T13:39:49;4;4;
39955;PMS5003;25631;51.516;-0.470;2023-05-10T13:42:25;3;3;
39955;PMS5003;25631;51.516;-0.470;2023-05-10T13:45:02;3;3;
39955;PMS5003;25631;51.516;-0.470;2023-05-10T13:47:39;5;5;
39955;PMS5003;25631;51.516;-0.470;2023-05-10T13:50:16;4;4;
39955;PMS5003;25631;51.516;-0.470;2023-05-10T13:52:53;5;5;
39955;PMS5003;25631;51.516;-0.470;2023-05-10T13:55:29;7;6;
39955;PMS5003;25631;51.516;-0.470;2023-05-10T13:58:05;6;5;
39955;PMS5003;25631;51.516;-0.470;2023-05-10T14:00:42;5;5;
39955;PMS5003;25631;51.516;-0.470;2023-05-10T14:03:18;7;7;
39955;PMS5003;25631;51.516;-0.470;2023-05-10T14:05:55;6;6;
39955;PMS5003;25631;51.516;-0.470;2023-05-10T14:08:31;4;4;
39955;PMS5003;25631;51.516;-0.470;2023-05-10T14:11:08;6;6;
39955;PMS5003;25631;51.516;-0.470;2023-05-10T14:13:45;5;5;
39955;PMS5003;25631;51.516;-0.470;2023-05-10T14:16:21;3;3;
39955;PMS5003;25631;51.516;-0.470;2023-05-10T14:18:57;3;3;
39955;PMS5003;25631;51.516;-0.470;2023-05-10T14:21:34;3;3;
39955;PMS5003;25631;51.516;-0.470;2023-05-10T14:24:11;4;4;
39955;PMS5003;25631;51.516;-0.470;2023-05-10T14:26:47;3;3;
39955;PMS5003;25631;51.516;-0.470;2023-05-10T14:29:24;6;6;
39955;PMS5003;25631;51.516;-0.470;2023-05-10T14:32:00;7;7;
39955;PMS5003;25631;51.516;-0.470;2023-05-10T14:34:37;7;7;
39955;PMS5003;25631;51.516;-0.470;2023-05-10T14:37:13;5;5;
39955;PMS5003;25631;51.516;-0.470;2023-05-10T14:39:50;5;5;
39955;PMS5003;25631;51.516;-0.470;2023-05-10T14:42:27;4;4;
39955;PMS5003;25631;51.516;-0.470;2023-05-10T14:45:04;6;6;
39955;PMS5003;25631;51.516;-0.470;2023-05-10T14:47:41;6;6;
39955;PMS5003;25631;51.516;-0.470;2023-05-10T14:50:18;5;5;
39955;PMS5003;25631;51.516;-0.470;2023-05-10T14:52:54;6;6;
39955;PMS5003;25631;51.516;-0.470;2023-05-10T14:55:31;7;7;
39955;PMS5003;25631;51.516;-0.470;2023-05-10T14:58:07;6;6;
39955;PMS5003;25631;51.516;-0.470;2023-05-10T15:00:44;7;6;
39955;PMS5003;25631;51.516;-0.470;2023-05-10T15:03:20;8;8;
39955;PMS5003;25631;51.516;-0.470;2023-05-10T15:05:56;9;8;
39955;PMS5003;25631;51.516;-0.470;2023-05-10T15:08:33;9;8;
39955;PMS5003;25631;51.516;-0.470;2023-05-10T15:11:10;8;8;
39955;PMS5003;25631;51.516;-0.470;2023-05-10T15:13:46;8;8;
39955;PMS5003;25631;51.516;-0.470;2023-05-10T15:16:23;10;8;
39955;PMS5003;25631;51.516;-0.470;2023-05-10T15:18:59;13;11;
39955;PMS5003;25631;51.516;-0.470;2023-05-10T15:21:36;13;11;
39955;PMS5003;25631;51.516;-0.470;2023-05-10T15:24:12;15;14;
39955;PMS5003;25631;51.516;-0.470;2023-05-10T15:26:49;15;14;
39955;PMS5003;25631;51.516;-0.470;2023-05-10T15:29:26;15;14;
39955;PMS5003;25631;51.516;-0.470;2023-05-10T15:32:02;15;15;
39955;PMS5003;25631;51.516;-0.470;2023-05-10T15:34:39;15;15;
39955;PMS5003;25631;51.516;-0.470;2023-05-10T15:37:16;14;14;
39955;PMS5003;25631;51.516;-0.470;2023-05-10T15:39:52;14;14;
39955;PMS5003;25631;51.516;-0.470;2023-05-10T15:42:29;14;14;
39955;PMS5003;25631;51.516;-0.470;2023-05-10T15:45:06;14;13;
39955;PMS5003;25631;51.516;-0.470;2023-05-10T15:47:43;15;15;
39955;PMS5003;25631;51.516;-0.470;2023-05-10T15:50:20;16;15;
39955;PMS5003;25631;51.516;-0.470;2023-05-10T15:52:57;13;13;
39955;PMS5003;25631;51.516;-0.470;2023-05-10T15:55:33;14;13;
39955;PMS5003;25631;51.516;-0.470;2023-05-10T15:58:10;17;17;
39955;PMS5003;25631;51.516;-0.470;2023-05-10T16:00:46;18;18;
39955;PMS5003;25631;51.516;-0.470;2023-05-10T16:03:23;17;17;
39955;PMS5003;25631;51.516;-0.470;2023-05-10T16:05:59;16;14;
39955;PMS5003;25631;51.516;-0.470;2023-05-10T16:08:36;17;14;
39955;PMS5003;25631;51.516;-0.470;2023-05-10T16:11:13;19;19;
39955;PMS5003;25631;51.516;-0.470;2023-05-10T16:13:49;19;19;
39955;PMS5003;25631;51.516;-0.470;2023-05-10T16:16:26;19;19;
39955;PMS5003;25631;51.516;-0.470;2023-05-10T16:19:02;17;15;
39955;PMS5003;25631;51.516;-0.470;2023-05-10T16:21:39;18;17;
39955;PMS5003;25631;51.516;-0.470;2023-05-10T16:24:15;20;18;
39955;PMS5003;25631;51.516;-0.470;2023-05-10T16:26:52;17;16;
39955;PMS5003;25631;51.516;-0.470;2023-05-10T16:29:29;16;16;
39955;PMS5003;25631;51.516;-0.470;2023-05-10T16:32:05;19;19;
39955;PMS5003;25631;51.516;-0.470;2023-05-10T16:34:42;20;19;
39955;PMS5003;25631;51.516;-0.470;2023-05-10T16:37:18;19;18;
39955;PMS5003;25631;51.516;-0.470;2023-05-10T16:39:55;15;15;
39955;PMS5003;25631;51.516;-0.470;2023-05-10T16:42:31;15;15;
39955;PMS5003;25631;51.516;-0.470;2023-05-10T16:45:08;21;20;
39955;PMS5003;25631;51.516;-0.470;2023-05-10T16:47:45;20;19;
39955;PMS5003;25631;51.516;-0.470;2023-05-10T16:50:21;20;19;
39955;PMS5003;25631;51.516;-0.470;2023-05-10T16:52:58;15;15;
39955;PMS5003;25631;51.516;-0.470;2023-05-10T16:55:34;16;16;
39955;PMS5003;25631;51.516;-0.470;2023-05-10T16:58:11;20;18;
39955;PMS5003;25631;51.516;-0.470;2023-05-10T17:00:47;20;18;
39955;PMS5003;25631;51.516;-0.470;2023-05-10T17:03:23;19;17;
39955;PMS5003;25631;51.516;-0.470;2023-05-10T17:06:00;20;20;
39955;PMS5003;25631;51.516;-0.470;2023-05-10T17:08:36;19;19;
39955;PMS5003;25631;51.516;-0.470;2023-05-10T17:11:13;23;22;
39955;PMS5003;25631;51.516;-0.470;2023-05-10T17:13:49;23;23;
39955;PMS5003;25631;51.516;-0.470;2023-05-10T17:16:26;23;23;
39955;PMS5003;25631;51.516;-0.470;2023-05-10T17:19:02;23;22;
39955;PMS5003;25631;51.516;-0.470;2023-05-10T17:21:39;21;21;
39955;PMS5003;25631;51.516;-0.470;2023-05-10T17:24:19;18;16;
39955;PMS5003;25631;51.516;-0.470;2023-05-10T17:26:55;17;17;
39955;PMS5003;25631;51.516;-0.470;2023-05-10T17:29:31;17;16;
39955;PMS5003;25631;51.516;-0.470;2023-05-10T17:32:08;28;25;
39955;PMS5003;25631;51.516;-0.470;2023-05-10T17:34:45;29;25;
39955;PMS5003;25631;51.516;-0.470;2023-05-10T17:37:21;31;29;